Time;durP1;ratioP1;P1;durP2;ratioP2;P2;SDS_P1;SDS_P2;PMS_P1;PMS_P2;Temp;Humidity;BMP_temperature;BMP_pressure;BME280_temperature;BME280_humidity;BME280_pressure;Samples;Min_cycle;Max_cycle;Signal;HPM_P1;HPM_P2
2023/06/16 00:00:19;;;;;;;5.63;3.00;;;;;;;17.58;48.72;101699.59;4944611;28;20052;-69
2023/06/16 00:03:05;;;;;;;4.93;2.90;;;;;;;17.53;48.80;101699.81;4942395;28;20051;-69
2023/06/16 00:05:51;;;;;;;6.65;2.92;;;;;;;17.49;48.97;101691.09;4947230;28;20059;-71
2023/06/16 00:08:37;;;;;;;5.82;3.15;;;;;;;17.43;48.85;101690.50;4948731;28;20152;-71
2023/06/16 00:11:25;;;;;;;6.85;3.33;;;;;;;17.37;49.13;101689.81;4949861;28;20055;-72
2023/06/16 00:14:10;;;;;;;8.45;3.22;;;;;;;17.29;48.96;101686.66;4948643;28;20056;-73
2023/06/16 00:16:57;;;;;;;4.88;2.95;;;;;;;17.26;49.19;101692.13;4948894;28;20111;-72
2023/06/16 00:19:43;;;;;;;5.25;3.00;;;;;;;17.21;49.08;101681.66;4939885;28;20091;-73
2023/06/16 00:22:28;;;;;;;6.05;2.88;;;;;;;17.19;49.26;101688.00;4947845;28;20513;-73
2023/06/16 00:25:17;;;;;;;6.68;3.10;;;;;;;17.14;49.37;101682.88;4940550;28;20059;-73
2023/06/16 00:28:02;;;;;;;5.82;3.25;;;;;;;17.08;49.41;101688.50;4961394;28;20055;-74
2023/06/16 00:30:48;;;;;;;6.50;2.83;;;;;;;17.02;49.35;101689.63;4947760;28;20063;-75
2023/06/16 00:33:33;;;;;;;4.03;2.80;;;;;;;17.03;49.34;101685.16;4939718;28;20098;-75
2023/06/16 00:36:19;;;;;;;7.80;2.90;;;;;;;17.02;49.00;101686.97;4940226;28;20059;-75
2023/06/16 00:39:04;;;;;;;4.57;3.33;;;;;;;17.00;48.55;101693.28;4948234;28;20056;-75
2023/06/16 00:41:50;;;;;;;10.95;3.55;;;;;;;16.97;48.66;101696.94;4947196;28;20099;-75
2023/06/16 00:44:35;;;;;;;6.95;3.00;;;;;;;16.94;48.72;101683.75;4947230;28;20089;-75
2023/06/16 00:47:21;;;;;;;5.68;2.80;;;;;;;16.91;48.97;101684.72;4937528;28;20487;-75
2023/06/16 00:50:07;;;;;;;4.13;2.90;;;;;;;16.86;49.18;101689.41;4945889;28;20052;-75
2023/06/16 00:52:53;;;;;;;4.57;2.83;;;;;;;16.82;49.32;101695.78;4948835;28;20064;-74
2023/06/16 00:55:41;;;;;;;8.10;3.05;;;;;;;16.74;49.69;101685.44;4960695;28;20060;-74
2023/06/16 00:58:28;;;;;;;7.50;3.03;;;;;;;16.69;50.73;101683.91;4938912;28;20047;-73
2023/06/16 01:01:14;;;;;;;3.63;2.90;;;;;;;16.63;50.69;101684.19;4960763;28;20052;-73
2023/06/16 01:04:01;;;;;;;6.82;2.90;;;;;;;16.59;51.39;101680.78;4948368;28;20847;-74
2023/06/16 01:07:09;;;;;;;3.70;2.85;;;;;;;16.55;51.59;101679.19;4961492;28;20745;-74
2023/06/16 01:10:07;;;;;;;6.47;3.00;;;;;;;16.42;51.90;101681.50;4945161;28;20047;-73
2023/06/16 01:13:30;;;;;;;14.15;3.25;;;;;;;16.27;52.53;101680.34;4951016;28;20056;-72
2023/06/16 01:16:23;;;;;;;5.75;3.05;;;;;;;16.11;53.23;101680.09;4951278;28;20056;-71
2023/06/16 01:19:50;;;;;;;5.10;3.10;;;;;;;16.01;53.22;101673.41;4946736;28;20190;-71
2023/06/16 01:23:08;;;;;;;4.82;3.13;;;;;;;16.05;53.27;101681.19;4950015;28;20056;-72
2023/06/16 01:26:01;;;;;;;7.20;3.22;;;;;;;16.11;53.21;101675.66;4935391;28;20055;-71
2023/06/16 01:28:49;;;;;;;5.72;3.05;;;;;;;16.13;53.30;101678.25;4950911;28;20051;-71
2023/06/16 01:31:38;;;;;;;3.88;3.13;;;;;;;16.13;53.08;101681.75;4955007;28;20117;-73
2023/06/16 01:34:26;;;;;;;5.65;3.17;;;;;;;16.14;53.22;101678.16;4961883;28;20055;-73
2023/06/16 01:37:12;;;;;;;7.72;3.20;;;;;;;16.11;53.31;101680.97;4950562;28;20063;-75
2023/06/16 01:39:59;;;;;;;6.25;3.42;;;;;;;16.05;53.34;101678.53;4950062;28;20056;-76
2023/06/16 01:42:47;;;;;;;5.60;3.25;;;;;;;16.02;53.43;101686.66;4935198;28;20048;-74
2023/06/16 01:45:35;;;;;;;7.47;3.50;;;;;;;15.96;53.72;101677.13;4941632;28;20060;-75
2023/06/16 01:48:21;;;;;;;4.72;3.30;;;;;;;15.94;53.55;101678.97;4947476;28;20051;-75
2023/06/16 01:51:07;;;;;;;8.30;3.50;;;;;;;15.86;53.83;101672.22;4948344;28;20134;-75
2023/06/16 01:53:53;;;;;;;5.07;3.08;;;;;;;15.87;53.78;101681.94;4949415;28;20060;-71
2023/06/16 01:56:39;;;;;;;6.47;3.08;;;;;;;15.87;53.78;101677.50;4955654;28;20052;-70
2023/06/16 01:59:25;;;;;;;5.70;3.55;;;;;;;15.81;53.83;101675.03;4962425;28;20056;-71
2023/06/16 02:02:17;;;;;;;6.35;3.45;;;;;;;15.75;53.98;101672.63;4946319;28;20505;-71
2023/06/16 02:05:05;;;;;;;6.55;3.53;;;;;;;15.73;54.19;101672.66;4945065;28;20056;-70
2023/06/16 02:07:55;;;;;;;6.78;3.80;;;;;;;15.69;54.19;101668.41;4951771;28;20096;-71
2023/06/16 02:10:41;;;;;;;5.75;3.53;;;;;;;15.62;54.51;101667.78;4951024;28;20535;-71
2023/06/16 02:13:28;;;;;;;4.50;3.45;;;;;;;15.54;54.65;101667.22;4958677;28;20052;-71
2023/06/16 02:16:14;;;;;;;6.53;3.90;;;;;;;15.49;54.85;101670.03;4961949;28;20550;-72
2023/06/16 02:19:01;;;;;;;5.72;3.63;;;;;;;15.45;54.84;101670.22;4963217;28;20063;-72
2023/06/16 02:21:47;;;;;;;6.28;3.63;;;;;;;15.41;55.00;101666.81;4949920;28;20048;-71
2023/06/16 02:24:33;;;;;;;5.80;3.65;;;;;;;15.40;54.93;101669.50;4949381;28;20064;-72
2023/06/16 02:27:18;;;;;;;6.15;3.58;;;;;;;15.35;55.08;101669.69;4947884;28;20056;-73
2023/06/16 02:30:06;;;;;;;6.30;3.58;;;;;;;15.33;55.07;101674.19;4943629;28;20066;-72
2023/06/16 02:32:52;;;;;;;5.00;3.30;;;;;;;15.31;55.20;101671.59;4946400;28;20064;-72
2023/06/16 02:35:47;;;;;;;5.60;3.83;;;;;;;15.33;55.27;101668.88;4954987;28;20059;-72
2023/06/16 02:38:32;;;;;;;6.72;3.70;;;;;;;15.31;55.53;101674.25;4951183;28;20064;-72
2023/06/16 02:41:18;;;;;;;5.60;3.45;;;;;;;15.29;55.13;101665.47;4949267;28;20059;-72
2023/06/16 02:44:03;;;;;;;9.15;3.85;;;;;;;15.29;55.14;101670.78;4960966;28;20108;-73
2023/06/16 02:46:49;;;;;;;7.97;3.70;;;;;;;15.27;54.89;101669.94;4947818;28;20052;-73
2023/06/16 02:49:34;;;;;;;4.93;3.58;;;;;;;15.24;55.07;101663.88;4959758;28;20063;-72
2023/06/16 02:52:20;;;;;;;7.53;3.92;;;;;;;15.27;54.87;101669.09;4947766;28;20120;-72
2023/06/16 02:55:08;;;;;;;6.40;3.75;;;;;;;15.29;55.12;101667.25;4956759;28;20047;-71
2023/06/16 02:58:01;;;;;;;7.55;4.18;;;;;;;15.24;55.42;101663.88;4946337;28;20135;-71
2023/06/16 03:00:47;;;;;;;6.60;3.40;;;;;;;15.19;55.20;101661.41;4948284;28;20070;-72
2023/06/16 03:03:36;;;;;;;6.85;4.10;;;;;;;15.14;55.15;101658.06;4941139;28;20056;-71
2023/06/16 03:06:44;;;;;;;;;;;;;;;15.12;55.27;101657.25;4945379;28;21724;-73
2023/06/16 03:09:41;;;;;;;7.13;4.00;;;;;;;15.10;55.36;101661.75;4947498;28;20094;-72
2023/06/16 03:12:29;;;;;;;6.45;3.60;;;;;;;15.10;55.77;101664.41;4949947;28;20104;-73
2023/06/16 03:15:25;;;;;;;;;;;;;;;15.07;55.62;101665.38;4962085;28;20067;-73
2023/06/16 03:18:11;;;;;;;6.38;4.00;;;;;;;15.15;55.48;101665.13;4944866;28;19927;-73
2023/06/16 03:20:57;;;;;;;8.48;3.95;;;;;;;15.12;55.43;101659.91;4960446;28;20047;-73
2023/06/16 03:23:48;;;;;;;10.00;4.22;;;;;;;15.09;55.57;101666.22;4977654;28;20056;-72
2023/06/16 03:26:35;;;;;;;6.43;4.03;;;;;;;15.05;55.65;101667.22;4986400;28;20044;-72
2023/06/16 03:29:25;;;;;;;6.03;3.95;;;;;;;15.01;55.59;101668.25;4948143;28;21646;-73
2023/06/16 03:32:11;;;;;;;7.07;4.03;;;;;;;14.97;55.84;101670.16;4945637;28;20156;-73
2023/06/16 03:34:57;;;;;;;7.90;4.15;;;;;;;14.95;56.06;101666.69;4946734;28;20509;-72
2023/06/16 03:37:44;;;;;;;7.03;4.25;;;;;;;14.96;56.24;101667.56;4942251;28;20579;-72
2023/06/16 03:40:30;;;;;;;9.20;3.97;;;;;;;14.96;56.11;101660.44;4938935;28;20056;-72
2023/06/16 03:43:16;;;;;;;4.80;3.65;;;;;;;15.00;55.98;101661.22;4960205;28;20493;-72
2023/06/16 03:46:01;;;;;;;7.40;3.90;;;;;;;15.06;55.96;101671.63;4946927;28;20052;-73
2023/06/16 03:48:47;;;;;;;7.10;4.10;;;;;;;15.07;55.65;101662.72;4947338;28;20100;-75
2023/06/16 03:51:34;;;;;;;8.57;3.70;;;;;;;15.12;56.15;101673.19;4941394;28;20101;-75
2023/06/16 03:54:19;;;;;;;6.68;3.88;;;;;;;15.19;56.18;101672.03;4950981;28;20508;-74
2023/06/16 03:57:05;;;;;;;6.80;3.80;;;;;;;15.27;55.92;101669.09;4945983;28;20210;-74
2023/06/16 03:59:51;;;;;;;6.50;4.10;;;;;;;15.21;56.10;101673.69;4953779;28;20142;-75
2023/06/16 04:02:37;;;;;;;10.98;4.30;;;;;;;15.18;56.34;101679.16;4934384;28;20064;-75
2023/06/16 04:05:24;;;;;;;10.77;3.63;;;;;;;15.15;56.45;101673.94;4941123;28;20078;-74
2023/06/16 04:08:12;;;;;;;5.18;3.60;;;;;;;15.24;56.51;101680.72;4957738;28;20119;-76
2023/06/16 04:10:58;;;;;;;9.10;3.97;;;;;;;15.26;56.71;101676.19;4938877;28;20555;-75
2023/06/16 04:13:45;;;;;;;9.00;4.40;;;;;;;15.25;56.77;101682.44;4958764;28;20139;-76
2023/06/16 04:16:33;;;;;;;12.85;4.35;;;;;;;15.19;57.06;101680.00;4959778;28;20067;-72
2023/06/16 04:19:19;;;;;;;50.42;6.40;;;;;;;15.13;57.08;101682.88;4944723;28;20091;-74
2023/06/16 04:22:05;;;;;;;50.95;6.97;;;;;;;15.13;57.26;101688.19;4949431;28;20047;-73
2023/06/16 04:25:05;;;;;;;30.55;5.93;;;;;;;15.12;57.51;101684.66;4962012;28;20181;-73
2023/06/16 04:27:51;;;;;;;49.50;6.35;;;;;;;15.12;57.36;101683.81;4933365;28;20048;-72
2023/06/16 04:30:39;;;;;;;83.43;9.35;;;;;;;15.18;57.78;101683.56;4948071;28;20633;-70
2023/06/16 04:33:26;;;;;;;109.40;10.98;;;;;;;15.26;57.73;101688.63;4940500;28;20131;-72
2023/06/16 04:36:14;;;;;;;84.78;9.57;;;;;;;15.23;57.92;101681.63;4963615;28;20043;-73
2023/06/16 04:38:59;;;;;;;46.83;7.03;;;;;;;15.19;58.39;101680.00;4971779;28;20060;-71
2023/06/16 04:41:46;;;;;;;45.22;7.28;;;;;;;15.19;58.44;101683.53;4965566;28;20068;-70
2023/06/16 04:44:31;;;;;;;7.88;4.13;;;;;;;15.26;58.26;101678.00;4956515;28;20107;-72
2023/06/16 04:47:17;;;;;;;8.82;4.53;;;;;;;15.37;58.30;101681.97;4959005;28;20059;-73
2023/06/16 04:50:04;;;;;;;11.95;4.28;;;;;;;15.48;58.19;101686.91;4969095;28;20059;-73
2023/06/16 04:52:51;;;;;;;8.18;4.13;;;;;;;15.63;57.93;101693.44;4950342;28;21544;-74
2023/06/16 04:55:37;;;;;;;9.10;4.20;;;;;;;15.81;57.51;101694.53;4967519;28;20062;-75
2023/06/16 04:58:23;;;;;;;10.38;4.10;;;;;;;16.06;57.21;101690.06;4960111;28;20064;-74
2023/06/16 05:01:09;;;;;;;7.40;4.18;;;;;;;16.25;56.48;101691.03;4944838;28;20082;-74
2023/06/16 05:03:55;;;;;;;12.10;4.90;;;;;;;16.42;55.68;101689.47;4969215;28;20098;-73
2023/06/16 05:06:41;;;;;;;7.35;4.32;;;;;;;16.58;55.65;101695.03;4962947;28;20048;-75
2023/06/16 05:09:26;;;;;;;13.20;4.97;;;;;;;16.76;55.05;101688.91;4967943;28;20539;-72
2023/06/16 05:12:11;;;;;;;7.15;4.38;;;;;;;16.95;54.91;101692.63;4951387;28;20608;-72
2023/06/16 05:14:58;;;;;;;6.63;4.55;;;;;;;17.15;54.67;101687.28;4967747;28;20052;-73
2023/06/16 05:17:44;;;;;;;7.05;4.07;;;;;;;17.43;54.03;101687.84;4955610;28;20056;-72
2023/06/16 05:20:31;;;;;;;30.67;6.55;;;;;;;19.03;50.47;101680.97;4955245;28;20056;-72
2023/06/16 05:23:17;;;;;;;17.75;5.32;;;;;;;19.78;48.50;101686.72;4956603;28;20816;-72
2023/06/16 05:26:03;;;;;;;19.77;5.95;;;;;;;20.18;47.51;101691.66;4949795;28;20048;-71
2023/06/16 05:28:49;;;;;;;13.27;5.38;;;;;;;20.57;46.73;101686.72;4966594;28;20056;-73
2023/06/16 05:31:37;;;;;;;16.23;5.20;;;;;;;21.34;45.73;101683.91;4955932;28;20554;-71
2023/06/16 05:34:23;;;;;;;10.43;4.85;;;;;;;23.54;42.82;101686.28;4968211;28;20059;-72
2023/06/16 05:37:08;;;;;;;9.68;4.30;;;;;;;25.52;38.52;101686.66;4956664;28;20060;-73
2023/06/16 05:39:54;;;;;;;8.45;4.20;;;;;;;27.07;35.92;101690.00;4950606;28;20052;-73
2023/06/16 05:42:39;;;;;;;14.13;4.72;;;;;;;28.31;33.41;101697.09;4957931;28;20052;-72
2023/06/16 05:45:25;;;;;;;8.43;4.03;;;;;;;29.37;31.04;101688.88;4943537;28;20059;-73
2023/06/16 05:48:11;;;;;;;9.77;4.55;;;;;;;29.83;29.26;101699.78;4938045;28;20548;-71
2023/06/16 05:50:59;;;;;;;10.88;4.25;;;;;;;30.03;28.67;101695.13;4949946;28;20055;-73
2023/06/16 05:53:47;;;;;;;7.55;3.90;;;;;;;30.40;28.24;101693.25;4979757;28;20055;-73
2023/06/16 05:56:32;;;;;;;12.68;4.22;;;;;;;30.80;27.99;101693.72;4974528;28;20063;-72
2023/06/16 05:59:18;;;;;;;12.70;4.47;;;;;;;31.06;26.00;101690.16;4962295;28;20110;-73
2023/06/16 06:02:04;;;;;;;6.85;3.78;;;;;;;30.93;25.88;101698.78;4955706;28;20135;-72
2023/06/16 06:04:50;;;;;;;8.43;4.07;;;;;;;30.91;26.05;101701.63;4966183;28;20051;-71
2023/06/16 06:07:36;;;;;;;14.20;4.15;;;;;;;31.06;26.02;101711.94;4945659;28;20108;-71
2023/06/16 06:10:21;;;;;;;14.88;3.90;;;;;;;31.19;25.82;101697.91;4952245;28;20067;-72
2023/06/16 06:13:11;;;;;;;13.35;4.00;;;;;;;31.42;25.99;101704.50;4961952;28;20056;-72
2023/06/16 06:16:03;;;;;;;7.97;4.03;;;;;;;31.77;25.02;101709.06;4959002;28;20056;-72
2023/06/16 06:18:50;;;;;;;8.73;3.50;;;;;;;31.76;25.60;101710.94;4946937;28;20059;-73
2023/06/16 06:21:36;;;;;;;9.82;3.47;;;;;;;30.51;26.29;101722.91;4950227;28;20085;-72
2023/06/16 06:24:21;;;;;;;7.55;4.00;;;;;;;27.72;29.46;101727.63;4949303;28;20048;-72
2023/06/16 06:27:10;;;;;;;4.75;3.80;;;;;;;25.58;32.39;101729.34;4949545;28;20047;-71
2023/06/16 06:29:55;;;;;;;7.38;3.97;;;;;;;24.23;34.69;101729.81;4956216;28;20063;-73
2023/06/16 06:32:41;;;;;;;6.70;3.53;;;;;;;23.37;36.32;101733.22;4966698;28;20529;-73
2023/06/16 06:35:26;;;;;;;7.32;3.85;;;;;;;22.80;37.63;101737.97;4963388;28;20143;-73
2023/06/16 06:38:13;;;;;;;7.03;3.65;;;;;;;22.37;38.75;101737.31;4952528;28;20056;-72
2023/06/16 06:41:00;;;;;;;7.65;3.45;;;;;;;22.09;39.42;101744.50;4962276;28;20773;-72
2023/06/16 06:43:46;;;;;;;7.10;3.78;;;;;;;21.95;40.12;101743.56;4975882;28;20060;-72
2023/06/16 06:46:34;;;;;;;6.05;3.38;;;;;;;21.86;40.16;101749.50;4950053;28;20063;-71
2023/06/16 06:49:20;;;;;;;7.40;3.70;;;;;;;21.75;40.34;101750.22;4960202;28;20052;-71
2023/06/16 06:52:07;;;;;;;9.80;4.00;;;;;;;21.75;40.61;101747.53;4957274;28;20525;-71
2023/06/16 06:54:53;;;;;;;6.28;3.88;;;;;;;21.76;40.69;101743.88;4969049;28;20043;-71
2023/06/16 06:57:42;;;;;;;5.57;3.63;;;;;;;21.81;40.76;101746.28;4962938;28;20052;-72
2023/06/16 07:00:27;;;;;;;10.40;3.70;;;;;;;21.81;40.23;101752.50;4966435;28;20051;-71
2023/06/16 07:03:13;;;;;;;4.00;3.00;;;;;;;21.82;39.14;101746.16;4946683;28;20063;-72
2023/06/16 07:05:59;;;;;;;6.72;2.97;;;;;;;21.87;39.96;101753.94;4944246;28;20063;-72
2023/06/16 07:08:44;;;;;;;5.75;3.10;;;;;;;21.92;38.65;101751.81;4951255;28;20059;-72
2023/06/16 07:11:30;;;;;;;8.65;3.13;;;;;;;21.98;38.29;101747.84;4950727;28;20633;-72
2023/06/16 07:14:15;;;;;;;13.35;3.50;;;;;;;22.06;38.33;101752.75;4943953;28;20068;-72
2023/06/16 07:17:02;;;;;;;5.03;2.80;;;;;;;22.15;36.53;101755.69;4937894;28;20668;-71
2023/06/16 07:19:48;;;;;;;4.28;2.60;;;;;;;22.19;36.28;101751.00;4947840;28;20060;-71
2023/06/16 07:22:33;;;;;;;4.00;2.80;;;;;;;22.29;36.89;101749.41;4950578;28;20067;-71
2023/06/16 07:25:19;;;;;;;5.75;2.75;;;;;;;22.41;37.11;101749.59;4940498;28;20071;-71
2023/06/16 07:28:05;;;;;;;6.70;3.03;;;;;;;22.51;37.19;101749.84;4950024;28;20059;-71
2023/06/16 07:30:54;;;;;;;4.82;3.08;;;;;;;22.59;36.91;101740.31;4949778;28;20055;-72
2023/06/16 07:33:40;;;;;;;7.18;2.65;;;;;;;22.71;37.06;101751.22;4949445;28;20051;-73
2023/06/16 07:36:25;;;;;;;25.20;7.53;;;;;;;22.85;35.78;101748.41;4944336;28;20067;-72
2023/06/16 07:39:13;;;;;;;8.68;3.50;;;;;;;22.91;35.10;101752.53;4949904;28;20060;-71
2023/06/16 07:41:59;;;;;;;7.38;2.95;;;;;;;22.95;35.23;101749.50;4949462;28;20056;-71
2023/06/16 07:44:44;;;;;;;3.38;2.55;;;;;;;22.98;35.23;101753.84;4945072;28;20052;-72
2023/06/16 07:47:30;;;;;;;3.75;2.25;;;;;;;23.02;34.96;101744.59;4950101;28;20108;-73
2023/06/16 07:50:15;;;;;;;9.38;3.00;;;;;;;23.11;34.85;101751.16;4950042;28;20628;-72
2023/06/16 07:53:01;;;;;;;10.38;2.75;;;;;;;23.29;34.59;101750.88;4949933;28;20059;-72
2023/06/16 07:55:46;;;;;;;6.88;2.50;;;;;;;23.41;34.50;101750.84;4946741;28;20869;-72
2023/06/16 07:58:31;;;;;;;5.63;2.50;;;;;;;23.46;32.71;101744.31;4949584;28;20059;-71
2023/06/16 08:01:17;;;;;;;5.35;2.40;;;;;;;23.46;33.00;101752.38;4949092;28;20761;-71
2023/06/16 08:04:02;;;;;;;6.20;2.38;;;;;;;23.53;33.46;101753.66;4947187;28;20052;-72
2023/06/16 08:06:48;;;;;;;10.77;2.70;;;;;;;23.75;33.55;101734.16;4946495;28;20059;-72
2023/06/16 08:09:33;;;;;;;4.03;2.30;;;;;;;24.01;32.50;101736.78;4946367;28;20055;-72
2023/06/16 08:12:18;;;;;;;8.00;2.40;;;;;;;24.02;32.29;101742.06;4937986;28;20056;-70
2023/06/16 08:15:05;;;;;;;11.02;2.85;;;;;;;24.13;32.45;101735.91;4948180;28;20064;-70
2023/06/16 08:17:50;;;;;;;4.18;2.30;;;;;;;24.24;31.09;101737.78;4936720;28;20055;-70
2023/06/16 08:20:36;;;;;;;4.32;2.30;;;;;;;24.25;31.77;101741.34;4947877;28;20059;-71
2023/06/16 08:23:21;;;;;;;3.60;2.20;;;;;;;24.37;30.61;101739.56;4943321;28;20051;-72
2023/06/16 08:26:06;;;;;;;4.43;2.42;;;;;;;24.34;30.76;101735.28;4948837;28;20584;-72
2023/06/16 08:28:51;;;;;;;4.82;2.20;;;;;;;24.30;31.50;101734.66;4948098;28;20063;-71
2023/06/16 08:31:36;;;;;;;5.93;2.70;;;;;;;24.48;31.09;101731.53;4930675;28;20060;-71
2023/06/16 08:34:22;;;;;;;3.35;2.30;;;;;;;24.69;30.87;101728.22;4925567;28;20056;-72
2023/06/16 08:37:08;;;;;;;5.05;2.30;;;;;;;24.80;30.59;101731.78;4930012;28;20517;-71
2023/06/16 08:40:13;;;;;;;3.72;2.53;;;;;;;25.04;30.58;101720.09;4929884;29;20052;-71
2023/06/16 08:43:05;;;;;;;16.95;3.47;;;;;;;25.16;30.99;101720.94;4930511;29;20063;-72
2023/06/16 08:45:52;;;;;;;4.90;2.70;;;;;;;25.39;30.59;101720.97;4929810;28;20056;-71
2023/06/16 08:48:38;;;;;;;4.20;2.60;;;;;;;25.50;30.13;101717.44;4929410;29;20184;-71
2023/06/16 08:51:27;;;;;;;2.50;2.28;;;;;;;25.30;29.96;101727.94;4929642;28;20056;-71
2023/06/16 08:54:13;;;;;;;5.18;2.45;;;;;;;25.11;30.21;101718.63;4929831;29;20060;-71
2023/06/16 08:57:04;;;;;;;3.97;2.58;;;;;;;24.92;29.70;101726.44;4930051;29;20048;-72
2023/06/16 08:59:55;;;;;;;3.45;2.30;;;;;;;24.66;30.43;101729.28;4941563;28;20056;-71
2023/06/16 09:02:41;;;;;;;4.20;2.85;;;;;;;24.50;30.86;101718.81;4930059;29;20060;-71
2023/06/16 09:05:30;;;;;;;4.97;2.53;;;;;;;24.53;30.93;101718.56;4929298;29;20060;-71
2023/06/16 09:08:15;;;;;;;6.90;2.58;;;;;;;24.52;31.13;101715.97;4930319;29;20056;-72
2023/06/16 09:11:08;;;;;;;3.00;2.53;;;;;;;24.58;31.20;101726.28;4929739;29;20056;-71
2023/06/16 09:13:54;;;;;;;5.97;2.47;;;;;;;24.67;31.26;101728.31;4930272;29;20096;-71
2023/06/16 09:16:40;;;;;;;3.55;2.55;;;;;;;24.69;30.41;101730.91;4928477;29;20060;-71
2023/06/16 09:19:26;;;;;;;3.80;2.63;;;;;;;24.72;30.12;101728.00;4928906;29;20200;-70
2023/06/16 09:22:18;;;;;;;3.22;2.30;;;;;;;24.82;30.54;101729.00;4929735;29;20113;-72
2023/06/16 09:25:07;;;;;;;3.60;2.63;;;;;;;24.89;30.59;101734.75;4929886;29;20044;-70
2023/06/16 09:27:54;;;;;;;4.80;2.33;;;;;;;25.04;30.75;101725.47;4931723;29;20052;-70
2023/06/16 09:30:40;;;;;;;5.47;2.50;;;;;;;25.28;29.82;101732.63;4944842;28;20056;-71
2023/06/16 09:33:29;;;;;;;9.15;3.30;;;;;;;25.52;28.67;101719.06;4967047;28;20063;-72
2023/06/16 09:36:26;;;;;;;4.25;2.42;;;;;;;25.69;28.24;101724.91;4958898;28;20722;-72
2023/06/16 09:39:25;;;;;;;7.00;2.70;;;;;;;25.82;28.57;101717.53;4951884;28;20063;-72
2023/06/16 09:42:11;;;;;;;3.20;2.40;;;;;;;25.99;28.04;101720.69;4952119;28;20953;-72
2023/06/16 09:44:57;;;;;;;5.60;2.33;;;;;;;26.13;28.34;101711.47;4951886;28;20151;-73
2023/06/16 09:47:45;;;;;;;3.67;2.38;;;;;;;26.25;28.76;101715.03;4950441;28;20056;-71
2023/06/16 09:50:32;;;;;;;7.63;2.60;;;;;;;26.40;28.63;101716.41;4949263;28;20126;-72
2023/06/16 09:53:22;;;;;;;5.85;2.45;;;;;;;26.50;28.55;101711.94;4936254;28;20056;-72
2023/06/16 09:56:08;;;;;;;14.02;3.10;;;;;;;26.60;28.43;101716.56;4950281;28;20488;-71
2023/06/16 09:58:53;;;;;;;8.27;2.78;;;;;;;26.67;28.56;101710.50;4932833;29;20099;-72
2023/06/16 10:01:43;;;;;;;6.50;2.47;;;;;;;26.78;27.90;101714.19;4943191;28;20795;-72
2023/06/16 10:04:33;;;;;;;12.88;2.80;;;;;;;26.86;28.00;101714.38;4950855;28;20762;-72
2023/06/16 10:07:20;;;;;;;10.88;2.88;;;;;;;26.93;28.27;101704.72;4931585;29;20872;-72
2023/06/16 10:10:10;;;;;;;14.75;3.15;;;;;;;27.09;28.39;101698.00;4943189;28;20056;-73
2023/06/16 10:12:57;;;;;;;4.30;2.35;;;;;;;27.25;27.60;101700.22;4943417;28;20536;-72
2023/06/16 10:15:47;;;;;;;13.40;2.90;;;;;;;27.25;27.37;101700.22;4949686;28;20779;-72
2023/06/16 10:18:35;;;;;;;6.75;2.90;;;;;;;27.26;27.47;101694.66;4967247;28;20060;-72
2023/06/16 10:21:23;;;;;;;18.30;3.15;;;;;;;27.34;27.21;101695.81;4967212;28;20062;-72
2023/06/16 10:24:10;;;;;;;5.72;2.75;;;;;;;27.46;27.05;101691.22;4954776;28;20052;-72
2023/06/16 10:26:56;;;;;;;8.65;2.60;;;;;;;27.54;27.14;101681.38;4953134;28;20059;-71
2023/06/16 10:29:46;;;;;;;35.55;4.25;;;;;;;27.60;27.32;101671.84;4952359;28;20515;-73
2023/06/16 10:32:32;;;;;;;5.63;2.47;;;;;;;27.71;27.15;101677.16;4970012;28;20070;-73
2023/06/16 10:35:20;;;;;;;4.03;2.55;;;;;;;27.83;27.02;101680.59;4950516;28;20052;-72
2023/06/16 10:38:06;;;;;;;10.23;2.60;;;;;;;27.88;27.07;101672.91;4939267;28;20091;-74
2023/06/16 10:40:56;;;;;;;12.32;3.67;;;;;;;27.99;27.05;101676.50;4948299;28;20067;-71
2023/06/16 10:43:41;;;;;;;11.98;2.78;;;;;;;28.05;27.02;101675.91;4949864;28;20055;-74
2023/06/16 10:46:26;;;;;;;6.40;2.55;;;;;;;28.07;27.21;101663.09;4949412;28;20728;-72
2023/06/16 10:49:15;;;;;;;12.38;3.08;;;;;;;28.16;26.02;101664.97;4949907;28;20051;-73
2023/06/16 10:52:02;;;;;;;4.55;2.60;;;;;;;28.23;26.46;101670.69;4951495;28;20119;-72
2023/06/16 10:54:48;;;;;;;26.33;3.85;;;;;;;28.33;26.48;101659.84;4942457;28;20052;-72
2023/06/16 10:57:36;;;;;;;10.07;2.97;;;;;;;28.41;26.13;101662.69;4950800;28;20064;-73
2023/06/16 11:00:25;;;;;;;10.07;2.70;;;;;;;28.49;25.75;101664.66;4939156;28;20060;-72
2023/06/16 11:03:10;;;;;;;3.95;2.25;;;;;;;28.52;25.44;101661.66;4943544;28;20096;-74
2023/06/16 11:06:01;;;;;;;6.55;2.70;;;;;;;28.59;24.92;101656.53;4950131;28;20081;-74
2023/06/16 11:08:55;;;;;;;14.27;3.10;;;;;;;28.68;25.01;101642.09;4951513;28;20052;-74
2023/06/16 11:11:41;;;;;;;9.13;2.75;;;;;;;28.79;24.71;101649.25;4930841;29;20933;-74
2023/06/16 11:14:27;;;;;;;5.30;2.80;;;;;;;28.87;23.91;101653.91;4931163;28;20064;-74
2023/06/16 11:17:14;;;;;;;12.07;3.60;;;;;;;28.84;23.64;101646.94;4935811;28;20453;-74
2023/06/16 11:20:02;;;;;;;5.70;2.40;;;;;;;28.84;24.32;101641.50;4948480;28;20138;-73
2023/06/16 11:22:49;;;;;;;7.53;2.88;;;;;;;28.96;24.60;101647.59;4949356;28;20546;-73
2023/06/16 11:25:37;;;;;;;23.63;3.97;;;;;;;29.19;23.70;101652.66;4950198;28;20052;-72
2023/06/16 11:28:22;;;;;;;10.02;2.83;;;;;;;29.23;23.68;101649.50;4932113;29;20044;-71
2023/06/16 11:31:10;;;;;;;4.63;2.50;;;;;;;29.29;23.48;101642.59;4963157;28;20428;-72
2023/06/16 11:33:55;;;;;;;5.47;2.92;;;;;;;29.34;22.35;101637.63;4957209;28;20059;-72
2023/06/16 11:37:08;;;;;;;6.05;2.83;;;;;;;29.28;23.07;101638.19;4947504;28;20123;-72
2023/06/16 11:39:53;;;;;;;11.35;3.00;;;;;;;29.37;23.40;101634.59;4949764;28;20060;-72
2023/06/16 11:42:38;;;;;;;5.40;2.60;;;;;;;29.50;23.05;101636.97;4950253;28;20525;-72
2023/06/16 11:45:27;;;;;;;14.32;3.20;;;;;;;29.55;22.89;101642.78;4950220;28;20063;-72
2023/06/16 11:48:13;;;;;;;9.77;3.20;;;;;;;29.65;23.14;101634.59;4935282;28;20195;-72
2023/06/16 11:50:59;;;;;;;4.70;2.35;;;;;;;29.80;22.79;101636.75;4943258;28;20060;-72
2023/06/16 11:53:47;;;;;;;6.22;2.42;;;;;;;29.91;22.51;101631.09;4930396;29;20901;-73
2023/06/16 11:56:33;;;;;;;28.88;4.13;;;;;;;30.07;22.16;101630.41;4931507;29;20056;-72
2023/06/16 11:59:19;;;;;;;5.13;2.50;;;;;;;30.16;21.55;101632.19;4949336;28;20456;-72
2023/06/16 12:02:06;;;;;;;6.07;2.80;;;;;;;30.18;21.77;101632.91;4949500;28;20484;-70
2023/06/16 12:04:52;;;;;;;5.53;2.33;;;;;;;30.27;22.06;101624.81;4949574;28;20056;-72
2023/06/16 12:07:39;;;;;;;5.03;2.50;;;;;;;30.37;21.99;101626.41;4948724;28;20095;-73
2023/06/16 12:10:25;;;;;;;9.20;2.88;;;;;;;30.42;21.48;101623.25;4949916;28;20150;-73
2023/06/16 12:13:11;;;;;;;8.73;2.70;;;;;;;30.48;22.06;101619.00;4948906;28;20095;-71
2023/06/16 12:15:57;;;;;;;5.90;2.70;;;;;;;30.52;21.86;101624.00;4949445;28;20063;-70
2023/06/16 12:18:43;;;;;;;4.15;2.45;;;;;;;30.60;21.06;101620.47;4947275;28;20170;-72
2023/06/16 12:21:29;;;;;;;9.70;2.72;;;;;;;30.44;20.97;101626.63;4947882;28;20051;-72
2023/06/16 12:24:18;;;;;;;4.43;2.42;;;;;;;30.48;21.15;101619.00;4944252;28;20052;-72
2023/06/16 12:27:05;;;;;;;9.48;2.80;;;;;;;30.55;21.11;101608.38;4949919;28;20119;-72
2023/06/16 12:29:57;;;;;;;7.97;2.83;;;;;;;30.60;21.29;101606.88;4954484;28;20500;-72
2023/06/16 12:32:45;;;;;;;10.57;3.10;;;;;;;30.67;20.90;101607.09;4968195;28;20530;-72
2023/06/16 12:35:31;;;;;;;15.57;3.00;;;;;;;30.78;20.99;101603.22;4946993;28;20279;-72
2023/06/16 12:38:30;;;;;;;15.57;3.05;;;;;;;30.97;20.40;101610.31;4945411;28;20055;-74
2023/06/16 12:41:17;;;;;;;14.65;2.75;;;;;;;31.08;20.92;101601.84;4947014;28;20059;-72
2023/06/16 12:44:03;;;;;;;30.08;3.90;;;;;;;31.18;20.48;101599.06;4951981;28;20044;-73
2023/06/16 12:46:50;;;;;;;15.45;2.83;;;;;;;31.29;20.57;101603.31;4958690;28;20059;-75
2023/06/16 12:49:36;;;;;;;5.40;2.55;;;;;;;31.19;20.29;101591.72;4945191;28;20067;-72
2023/06/16 12:52:24;;;;;;;27.10;3.92;;;;;;;31.12;20.25;101592.38;4953068;28;20067;-74
2023/06/16 12:55:09;;;;;;;11.90;2.92;;;;;;;31.06;20.07;101594.88;4966520;28;20841;-75
2023/06/16 12:57:55;;;;;;;12.50;3.08;;;;;;;30.99;20.47;101590.06;4947223;28;20063;-72